createdAt,value
2019-04-25T00:02:25.319Z,-63
2019-04-25T00:06:45.785Z,-64
2019-04-25T00:12:45.688Z,-62
2019-04-25T00:18:44.214Z,-62
2019-04-25T00:24:39.593Z,-61
2019-04-25T00:35:03.027Z,-64
2019-04-25T00:38:58.419Z,-62
2019-04-25T00:45:02.314Z,-64
2019-04-25T00:49:03.738Z,-62
2019-04-25T00:53:14.365Z,-64
2019-04-25T00:59:14.775Z,-64
2019-04-25T01:04:22.667Z,-62
2019-04-25T01:08:26.188Z,-63
2019-04-25T01:12:33.387Z,-63
2019-04-25T01:16:42.863Z,-63
2019-04-25T01:20:56.283Z,-61
2019-04-25T01:25:01.225Z,-62
2019-04-25T01:30:06.912Z,-63
2019-04-25T01:36:04.424Z,-63
2019-04-25T01:40:43.895Z,-63
2019-04-25T01:45:30.362Z,-63
2019-04-25T01:53:25.267Z,-63
2019-04-25T01:57:35.120Z,-63
2019-04-25T02:01:44.804Z,-63
2019-04-25T02:05:46.056Z,-64
2019-04-25T02:10:47.723Z,-63
2019-04-25T02:15:30.480Z,-62
2019-04-25T02:19:54.564Z,-63
2019-04-25T02:24:08.963Z,-61
2019-04-25T02:30:08.937Z,-61
2019-04-25T02:35:10.552Z,-62
2019-04-25T02:43:09.048Z,-63
2019-04-25T02:51:01.204Z,-65
2019-04-25T02:57:21.216Z,-62
2019-04-25T03:01:26.887Z,-64
2019-04-25T03:07:27.407Z,-63
2019-04-25T03:11:25.412Z,-63
2019-04-25T03:19:18.040Z,-65
2019-04-25T03:25:36.395Z,-61
2019-04-25T03:30:37.957Z,-63
2019-04-25T03:35:37.028Z,-63
2019-04-25T03:39:35.298Z,-63
2019-04-25T03:45:37.104Z,-64
2019-04-25T03:49:43.313Z,-64
2019-04-25T03:54:50.004Z,-63
2019-04-25T03:58:48.299Z,-63
2019-04-25T04:02:51.788Z,-62
2019-04-25T04:07:09.606Z,-62
2019-04-25T04:17:08.800Z,-63
2019-04-25T04:21:49.220Z,-62
2019-04-25T04:26:17.756Z,-62
2019-04-25T04:32:17.351Z,-63
2019-04-25T04:40:05.691Z,-63
2019-04-25T04:44:04.122Z,-63
2019-04-25T04:48:11.119Z,-61
2019-04-25T04:56:19.377Z,-61
2019-04-25T05:00:19.567Z,-61
2019-04-25T05:04:26.171Z,-63
2019-04-25T05:09:05.083Z,-62
2019-04-25T05:13:44.068Z,-64
2019-04-25T05:21:38.152Z,-64
2019-04-25T05:25:38.357Z,-62
2019-04-25T05:29:47.883Z,-63
2019-04-25T05:33:54.547Z,-63
2019-04-25T05:38:04.352Z,-60
2019-04-25T05:43:04.304Z,-63
2019-04-25T05:47:30.056Z,-64
2019-04-25T05:53:28.859Z,-62
2019-04-25T05:59:21.859Z,-63
2019-04-25T06:03:21.664Z,-63
2019-04-25T06:07:35.212Z,-63
2019-04-25T06:11:38.151Z,-63
2019-04-25T06:16:17.779Z,-64
2019-04-25T06:21:34.164Z,-62
2019-04-25T06:26:40.184Z,-64
2019-04-25T06:31:01.863Z,-63
2019-04-25T06:35:12.335Z,-64
2019-04-25T06:39:21.983Z,-63
2019-04-25T06:43:35.024Z,-62
2019-04-25T06:47:54.971Z,-64
2019-04-25T06:52:54.679Z,-64
2019-04-25T06:57:14.095Z,-63
2019-04-25T07:02:17.668Z,-62
2019-04-25T07:06:31.310Z,-61
2019-04-25T07:10:40.960Z,-72
2019-04-25T07:14:46.695Z,-68
2019-04-25T07:18:53.411Z,-68
2019-04-25T07:23:03.549Z,-71
2019-04-25T07:27:25.706Z,-69
2019-04-25T07:32:40.696Z,-67
2019-04-25T07:37:18.143Z,-69
2019-04-25T07:41:25.886Z,-67
2019-04-25T07:45:29.608Z,-69
2019-04-25T07:49:41.071Z,-67
2019-04-25T07:53:46.477Z,-69
2019-04-25T08:36:55.615Z,-71
2019-04-25T08:41:05.083Z,-68
2019-04-25T08:45:08.004Z,-71
2019-04-25T08:49:11.603Z,-67
2019-04-25T09:32:47.842Z,-67
2019-04-25T09:36:48.131Z,-70
2019-04-25T09:40:50.960Z,-66
2019-04-25T09:44:55.608Z,-68
2019-04-25T10:28:41.606Z,-71
2019-04-25T11:11:58.212Z,-71
2019-04-25T11:15:57.971Z,-71
2019-04-25T12:38:21.415Z,-69
2019-04-25T13:21:46.075Z,-68
2019-04-25T13:25:48.011Z,-69
2019-04-25T13:29:50.196Z,-67
2019-04-25T13:34:54.644Z,-67
2019-04-25T13:39:21.935Z,-68
2019-04-25T14:22:31.332Z,-69
2019-04-25T15:21:27.577Z,-71
2019-04-25T15:25:30.561Z,-69
2019-04-25T15:49:13.359Z,-65
2019-04-25T15:53:11.519Z,-65
2019-04-25T16:03:06.189Z,-65
2019-04-25T16:18:58.460Z,-67
2019-04-25T16:27:43.829Z,-66
